< Typhoon 195816 1958 Season Typhoon 195818 >
Typhoon 195817 (FLOSSIE)
General InformationTrack Information on Google Maps || NewsDisaster Info.ResourceGoogle EarthGE AnimationAtom FeedGeoJSON
Detalied Best Track (Time Zone = UTC)
Year Month Day Hour Lat. Long. Pressure (hPa) Wind (kt) Class Image Chart
1958 8 19 12 12.2 138.9 1006 0 2 -- Chart
1958 8 19 18 13.3 139.0 1006 0 2 -- Chart
1958 8 20 00 14.4 138.9 1006 0 2 -- Chart
1958 8 20 06 15.2 138.7 1004 0 2 -- Chart
1958 8 20 12 16.3 138.0 1002 0 2 -- Chart
1958 8 20 18 17.3 137.3 1002 0 2 -- Chart
1958 8 21 00 18.3 136.5 1000 0 9 -- Chart
1958 8 21 06 19.4 135.7 998 0 9 -- Chart
1958 8 21 12 20.2 134.8 995 0 9 -- Chart
1958 8 21 18 21.1 134.1 995 0 9 -- Chart
1958 8 22 00 22.2 133.5 990 0 9 -- Chart
1958 8 22 06 23.5 133.2 990 0 9 -- Chart
1958 8 22 12 24.1 133.2 985 0 9 -- Chart
1958 8 22 18 24.9 133.2 985 0 9 -- Chart
1958 8 23 00 25.8 133.3 985 0 9 -- Chart
1958 8 23 06 26.7 133.2 975 0 9 -- Chart
1958 8 23 12 27.4 133.1 975 0 9 -- Chart
1958 8 23 18 28.2 133.0 975 0 9 -- Chart
1958 8 24 00 28.9 133.1 970 0 9 -- Chart
1958 8 24 06 29.9 133.4 970 0 9 -- Chart
1958 8 24 12 30.8 133.7 970 0 9 -- Chart
1958 8 24 18 31.6 133.9 970 0 9 -- Chart
1958 8 25 00 32.6 134.1 970 0 9 -- Chart
1958 8 25 06 33.5 134.8 970 0 9 -- Chart
1958 8 25 12 34.4 135.7 980 0 9 -- Chart
1958 8 25 18 36.2 136.6 996 0 9 -- Chart
1958 8 26 00 37.2 138.8 1000 0 2 -- Chart
1958 8 26 06 38.1 140.2 1000 0 6 -- Chart
1958 8 26 12 38.8 142.1 1004 0 6 -- Chart
1958 8 26 18 38.4 145.3 1006 0 6 -- Chart
1958 8 27 00 38.0 148.0 1004 0 6 -- Chart
1958 8 27 06 37.0 149.0 1006 0 6 -- Chart
1958 8 27 12 36.9 152.0 1006 0 6 -- Chart
1958 8 27 18 37.0 156.0 1008 0 6 -- Chart
Japan Meteorological Agency Best Track Data | Correction Date : 1989-06-01
< Typhoon 195816 1958 Season Typhoon 195818 >

Help